sensor_id;sensor_type;location;lat;lon;timestamp;pressure;altitude;pressure_sealevel;temperature
12854;BMP180;6495;51.808;7.478;2023-03-05T00:01:39;101509.00;;;5.00
12854;BMP180;6495;51.808;7.478;2023-03-05T00:04:12;101520.00;;;5.00
12854;BMP180;6495;51.808;7.478;2023-03-05T00:06:41;101514.00;;;5.00
12854;BMP180;6495;51.808;7.478;2023-03-05T00:09:09;101522.00;;;4.90
12854;BMP180;6495;51.808;7.478;2023-03-05T00:11:38;101515.00;;;4.90
12854;BMP180;6495;51.808;7.478;2023-03-05T00:14:06;101519.00;;;4.90
12854;BMP180;6495;51.808;7.478;2023-03-05T00:16:34;101519.00;;;4.90
12854;BMP180;6495;51.808;7.478;2023-03-05T00:19:03;101509.00;;;5.00
12854;BMP180;6495;51.808;7.478;2023-03-05T00:21:35;101504.00;;;5.00
12854;BMP180;6495;51.808;7.478;2023-03-05T00:24:07;101504.00;;;5.00
12854;BMP180;6495;51.808;7.478;2023-03-05T00:26:37;101500.00;;;5.00
12854;BMP180;6495;51.808;7.478;2023-03-05T00:29:06;101485.00;;;5.00
12854;BMP180;6495;51.808;7.478;2023-03-05T00:31:37;101490.00;;;5.00
12854;BMP180;6495;51.808;7.478;2023-03-05T00:34:08;101498.00;;;4.90
12854;BMP180;6495;51.808;7.478;2023-03-05T00:36:41;101489.00;;;5.00
12854;BMP180;6495;51.808;7.478;2023-03-05T00:39:10;101498.00;;;5.00
12854;BMP180;6495;51.808;7.478;2023-03-05T00:41:38;101491.00;;;4.90
12854;BMP180;6495;51.808;7.478;2023-03-05T00:44:07;101481.00;;;4.90
12854;BMP180;6495;51.808;7.478;2023-03-05T00:46:36;101479.00;;;4.90
12854;BMP180;6495;51.808;7.478;2023-03-05T00:49:04;101481.00;;;4.90
12854;BMP180;6495;51.808;7.478;2023-03-05T00:51:33;101482.00;;;4.90
12854;BMP180;6495;51.808;7.478;2023-03-05T00:54:03;101476.00;;;4.90
12854;BMP180;6495;51.808;7.478;2023-03-05T00:56:31;101466.00;;;4.90
12854;BMP180;6495;51.808;7.478;2023-03-05T00:59:00;101480.00;;;4.90
12854;BMP180;6495;51.808;7.478;2023-03-05T01:01:28;101476.00;;;4.80
12854;BMP180;6495;51.808;7.478;2023-03-05T01:03:57;101468.00;;;4.80
12854;BMP180;6495;51.808;7.478;2023-03-05T01:06:27;101468.00;;;4.80
12854;BMP180;6495;51.808;7.478;2023-03-05T01:08:55;101459.00;;;4.80
12854;BMP180;6495;51.808;7.478;2023-03-05T01:11:26;101454.00;;;4.80
12854;BMP180;6495;51.808;7.478;2023-03-05T01:13:55;101454.00;;;4.80
12854;BMP180;6495;51.808;7.478;2023-03-05T01:16:23;101455.00;;;4.80
12854;BMP180;6495;51.808;7.478;2023-03-05T01:18:51;101451.00;;;4.80
12854;BMP180;6495;51.808;7.478;2023-03-05T01:21:19;101456.00;;;4.80
12854;BMP180;6495;51.808;7.478;2023-03-05T01:23:48;101444.00;;;4.80
12854;BMP180;6495;51.808;7.478;2023-03-05T01:26:16;101437.00;;;4.80
12854;BMP180;6495;51.808;7.478;2023-03-05T01:28:45;101435.00;;;4.80
12854;BMP180;6495;51.808;7.478;2023-03-05T01:31:14;101430.00;;;4.80
12854;BMP180;6495;51.808;7.478;2023-03-05T01:33:42;101437.00;;;4.80
12854;BMP180;6495;51.808;7.478;2023-03-05T01:36:14;101434.00;;;4.80
12854;BMP180;6495;51.808;7.478;2023-03-05T01:38:44;101432.00;;;4.80
12854;BMP180;6495;51.808;7.478;2023-03-05T01:41:15;101423.00;;;4.80
12854;BMP180;6495;51.808;7.478;2023-03-05T01:43:46;101425.00;;;4.70
12854;BMP180;6495;51.808;7.478;2023-03-05T01:46:25;101417.00;;;4.70
12854;BMP180;6495;51.808;7.478;2023-03-05T01:52:05;101420.00;;;4.70
12854;BMP180;6495;51.808;7.478;2023-03-05T01:54:39;101412.00;;;4.70
12854;BMP180;6495;51.808;7.478;2023-03-05T01:57:15;101418.00;;;4.70
12854;BMP180;6495;51.808;7.478;2023-03-05T01:59:48;101425.00;;;4.70
12854;BMP180;6495;51.808;7.478;2023-03-05T02:02:19;101411.00;;;4.70
12854;BMP180;6495;51.808;7.478;2023-03-05T02:04:51;101415.00;;;4.70
12854;BMP180;6495;51.808;7.478;2023-03-05T02:07:22;101410.00;;;4.70
12854;BMP180;6495;51.808;7.478;2023-03-05T02:09:50;101402.00;;;4.70
12854;BMP180;6495;51.808;7.478;2023-03-05T02:12:19;101397.00;;;4.70
12854;BMP180;6495;51.808;7.478;2023-03-05T02:14:51;101402.00;;;4.70
12854;BMP180;6495;51.808;7.478;2023-03-05T02:17:27;101397.00;;;4.70
12854;BMP180;6495;51.808;7.478;2023-03-05T02:20:04;101386.00;;;4.70
12854;BMP180;6495;51.808;7.478;2023-03-05T02:22:34;101385.00;;;4.70
12854;BMP180;6495;51.808;7.478;2023-03-05T02:25:13;101385.00;;;4.70
12854;BMP180;6495;51.808;7.478;2023-03-05T02:27:49;101388.00;;;4.70
12854;BMP180;6495;51.808;7.478;2023-03-05T02:30:19;101375.00;;;4.70
12854;BMP180;6495;51.808;7.478;2023-03-05T02:32:47;101380.00;;;4.70
12854;BMP180;6495;51.808;7.478;2023-03-05T02:35:16;101365.00;;;4.70
12854;BMP180;6495;51.808;7.478;2023-03-05T02:37:47;101363.00;;;4.70
12854;BMP180;6495;51.808;7.478;2023-03-05T02:40:16;101356.00;;;4.70
12854;BMP180;6495;51.808;7.478;2023-03-05T02:42:44;101342.00;;;4.70
12854;BMP180;6495;51.808;7.478;2023-03-05T02:45:15;101355.00;;;4.70
12854;BMP180;6495;51.808;7.478;2023-03-05T02:47:43;101348.00;;;4.70
12854;BMP180;6495;51.808;7.478;2023-03-05T02:50:12;101358.00;;;4.70
12854;BMP180;6495;51.808;7.478;2023-03-05T02:52:40;101349.00;;;4.70
12854;BMP180;6495;51.808;7.478;2023-03-05T02:55:14;101358.00;;;4.60
12854;BMP180;6495;51.808;7.478;2023-03-05T02:57:43;101349.00;;;4.60
12854;BMP180;6495;51.808;7.478;2023-03-05T03:00:12;101347.00;;;4.60
12854;BMP180;6495;51.808;7.478;2023-03-05T03:02:41;101348.00;;;4.60
12854;BMP180;6495;51.808;7.478;2023-03-05T03:05:09;101337.00;;;4.60
12854;BMP180;6495;51.808;7.478;2023-03-05T03:07:37;101333.00;;;4.60
12854;BMP180;6495;51.808;7.478;2023-03-05T03:10:07;101328.00;;;4.60
12854;BMP180;6495;51.808;7.478;2023-03-05T03:12:37;101321.00;;;4.60
12854;BMP180;6495;51.808;7.478;2023-03-05T03:15:11;101325.00;;;4.60
12854;BMP180;6495;51.808;7.478;2023-03-05T03:17:42;101312.00;;;4.60
12854;BMP180;6495;51.808;7.478;2023-03-05T03:20:14;101314.00;;;4.60
12854;BMP180;6495;51.808;7.478;2023-03-05T03:22:44;101317.00;;;4.60
12854;BMP180;6495;51.808;7.478;2023-03-05T03:25:14;101310.00;;;4.60
12854;BMP180;6495;51.808;7.478;2023-03-05T03:27:44;101313.00;;;4.60
12854;BMP180;6495;51.808;7.478;2023-03-05T03:30:13;101306.00;;;4.50
12854;BMP180;6495;51.808;7.478;2023-03-05T03:32:42;101294.00;;;4.50
12854;BMP180;6495;51.808;7.478;2023-03-05T03:35:11;101291.00;;;4.50
12854;BMP180;6495;51.808;7.478;2023-03-05T03:37:39;101293.00;;;4.50
12854;BMP180;6495;51.808;7.478;2023-03-05T03:40:10;101292.00;;;4.50
12854;BMP180;6495;51.808;7.478;2023-03-05T03:42:38;101285.00;;;4.50
12854;BMP180;6495;51.808;7.478;2023-03-05T03:45:09;101285.00;;;4.50
12854;BMP180;6495;51.808;7.478;2023-03-05T03:47:38;101282.00;;;4.50
12854;BMP180;6495;51.808;7.478;2023-03-05T03:50:08;101275.00;;;4.50
12854;BMP180;6495;51.808;7.478;2023-03-05T03:52:36;101275.00;;;4.50
12854;BMP180;6495;51.808;7.478;2023-03-05T03:55:06;101280.00;;;4.50
12854;BMP180;6495;51.808;7.478;2023-03-05T03:57:36;101271.00;;;4.40
12854;BMP180;6495;51.808;7.478;2023-03-05T04:00:08;101269.00;;;4.40
12854;BMP180;6495;51.808;7.478;2023-03-05T04:02:41;101264.00;;;4.40
12854;BMP180;6495;51.808;7.478;2023-03-05T04:05:09;101260.00;;;4.40
12854;BMP180;6495;51.808;7.478;2023-03-05T04:07:38;101269.00;;;4.40
12854;BMP180;6495;51.808;7.478;2023-03-05T04:10:08;101261.00;;;4.40
12854;BMP180;6495;51.808;7.478;2023-03-05T04:12:36;101258.00;;;4.40
12854;BMP180;6495;51.808;7.478;2023-03-05T04:15:10;101260.00;;;4.30
12854;BMP180;6495;51.808;7.478;2023-03-05T04:17:42;101259.00;;;4.40
12854;BMP180;6495;51.808;7.478;2023-03-05T04:20:11;101249.00;;;4.30
12854;BMP180;6495;51.808;7.478;2023-03-05T04:22:41;101247.00;;;4.30
12854;BMP180;6495;51.808;7.478;2023-03-05T04:25:10;101249.00;;;4.40
12854;BMP180;6495;51.808;7.478;2023-03-05T04:27:38;101255.00;;;4.30
12854;BMP180;6495;51.808;7.478;2023-03-05T04:30:12;101243.00;;;4.30
12854;BMP180;6495;51.808;7.478;2023-03-05T04:32:41;101236.00;;;4.30
12854;BMP180;6495;51.808;7.478;2023-03-05T04:35:10;101237.00;;;4.30
12854;BMP180;6495;51.808;7.478;2023-03-05T04:37:38;101235.00;;;4.30
12854;BMP180;6495;51.808;7.478;2023-03-05T04:40:08;101226.00;;;4.30
12854;BMP180;6495;51.808;7.478;2023-03-05T04:42:40;101226.00;;;4.40
12854;BMP180;6495;51.808;7.478;2023-03-05T04:45:10;101229.00;;;4.30
12854;BMP180;6495;51.808;7.478;2023-03-05T04:47:39;101223.00;;;4.30
12854;BMP180;6495;51.808;7.478;2023-03-05T04:50:09;101219.00;;;4.30
12854;BMP180;6495;51.808;7.478;2023-03-05T04:52:39;101214.00;;;4.40
12854;BMP180;6495;51.808;7.478;2023-03-05T04:55:10;101209.00;;;4.30
12854;BMP180;6495;51.808;7.478;2023-03-05T04:57:39;101211.00;;;4.30
12854;BMP180;6495;51.808;7.478;2023-03-05T05:00:13;101221.00;;;4.40
12854;BMP180;6495;51.808;7.478;2023-03-05T05:02:42;101219.00;;;4.30
12854;BMP180;6495;51.808;7.478;2023-03-05T05:05:14;101220.00;;;4.30
12854;BMP180;6495;51.808;7.478;2023-03-05T05:07:43;101223.00;;;4.30
12854;BMP180;6495;51.808;7.478;2023-03-05T05:10:13;101212.00;;;4.30
12854;BMP180;6495;51.808;7.478;2023-03-05T05:12:42;101215.00;;;4.30
12854;BMP180;6495;51.808;7.478;2023-03-05T05:15:12;101216.00;;;4.20
12854;BMP180;6495;51.808;7.478;2023-03-05T05:17:41;101212.00;;;4.20
12854;BMP180;6495;51.808;7.478;2023-03-05T05:20:12;101215.00;;;4.20
12854;BMP180;6495;51.808;7.478;2023-03-05T05:22:41;101212.00;;;4.20
12854;BMP180;6495;51.808;7.478;2023-03-05T05:25:10;101216.00;;;4.20
12854;BMP180;6495;51.808;7.478;2023-03-05T05:27:39;101206.00;;;4.20
12854;BMP180;6495;51.808;7.478;2023-03-05T05:30:09;101208.00;;;4.20
12854;BMP180;6495;51.808;7.478;2023-03-05T05:32:39;101211.00;;;4.20
12854;BMP180;6495;51.808;7.478;2023-03-05T05:35:09;101214.00;;;4.20
12854;BMP180;6495;51.808;7.478;2023-03-05T05:37:38;101201.00;;;4.20
12854;BMP180;6495;51.808;7.478;2023-03-05T05:40:08;101201.00;;;4.20
12854;BMP180;6495;51.808;7.478;2023-03-05T05:42:36;101195.00;;;4.20
12854;BMP180;6495;51.808;7.478;2023-03-05T05:45:06;101192.00;;;4.20
12854;BMP180;6495;51.808;7.478;2023-03-05T05:47:35;101193.00;;;4.20
12854;BMP180;6495;51.808;7.478;2023-03-05T05:50:06;101195.00;;;4.20
12854;BMP180;6495;51.808;7.478;2023-03-05T05:52:34;101192.00;;;4.20
12854;BMP180;6495;51.808;7.478;2023-03-05T05:55:04;101187.00;;;4.10
12854;BMP180;6495;51.808;7.478;2023-03-05T05:57:33;101200.00;;;4.10
12854;BMP180;6495;51.808;7.478;2023-03-05T06:00:02;101199.00;;;4.10
12854;BMP180;6495;51.808;7.478;2023-03-05T06:02:38;101205.00;;;4.10
12854;BMP180;6495;51.808;7.478;2023-03-05T06:05:12;101193.00;;;4.10
12854;BMP180;6495;51.808;7.478;2023-03-05T06:07:40;101199.00;;;4.20
12854;BMP180;6495;51.808;7.478;2023-03-05T06:10:10;101203.00;;;4.20
12854;BMP180;6495;51.808;7.478;2023-03-05T06:12:39;101192.00;;;4.20
12854;BMP180;6495;51.808;7.478;2023-03-05T06:15:08;101186.00;;;4.10
12854;BMP180;6495;51.808;7.478;2023-03-05T06:17:37;101190.00;;;4.10
12854;BMP180;6495;51.808;7.478;2023-03-05T06:20:08;101195.00;;;4.20
12854;BMP180;6495;51.808;7.478;2023-03-05T06:22:38;101186.00;;;4.20
12854;BMP180;6495;51.808;7.478;2023-03-05T06:25:08;101184.00;;;4.10
12854;BMP180;6495;51.808;7.478;2023-03-05T06:27:37;101186.00;;;4.10
12854;BMP180;6495;51.808;7.478;2023-03-05T06:30:09;101186.00;;;4.10
12854;BMP180;6495;51.808;7.478;2023-03-05T06:32:37;101182.00;;;4.10
12854;BMP180;6495;51.808;7.478;2023-03-05T06:35:08;101182.00;;;4.10
12854;BMP180;6495;51.808;7.478;2023-03-05T06:37:36;101185.00;;;4.10
12854;BMP180;6495;51.808;7.478;2023-03-05T06:40:06;101178.00;;;4.10
12854;BMP180;6495;51.808;7.478;2023-03-05T06:42:35;101183.00;;;4.10
12854;BMP180;6495;51.808;7.478;2023-03-05T06:45:05;101184.00;;;4.10
12854;BMP180;6495;51.808;7.478;2023-03-05T06:47:34;101186.00;;;4.10
12854;BMP180;6495;51.808;7.478;2023-03-05T06:50:03;101181.00;;;4.10
12854;BMP180;6495;51.808;7.478;2023-03-05T06:52:33;101174.00;;;4.10
12854;BMP180;6495;51.808;7.478;2023-03-05T06:55:02;101181.00;;;4.10
12854;BMP180;6495;51.808;7.478;2023-03-05T06:57:31;101180.00;;;4.10
12854;BMP180;6495;51.808;7.478;2023-03-05T06:59:59;101183.00;;;4.10
12854;BMP180;6495;51.808;7.478;2023-03-05T07:02:28;101179.00;;;4.10
12854;BMP180;6495;51.808;7.478;2023-03-05T07:04:56;101178.00;;;4.10
12854;BMP180;6495;51.808;7.478;2023-03-05T07:07:24;101176.00;;;4.10
12854;BMP180;6495;51.808;7.478;2023-03-05T07:09:54;101174.00;;;4.20
12854;BMP180;6495;51.808;7.478;2023-03-05T07:12:22;101168.00;;;4.20
12854;BMP180;6495;51.808;7.478;2023-03-05T07:14:51;101164.00;;;4.20
12854;BMP180;6495;51.808;7.478;2023-03-05T07:17:19;101170.00;;;4.20
12854;BMP180;6495;51.808;7.478;2023-03-05T07:19:47;101168.00;;;4.20
12854;BMP180;6495;51.808;7.478;2023-03-05T07:22:16;101164.00;;;4.20
12854;BMP180;6495;51.808;7.478;2023-03-05T07:24:44;101169.00;;;4.20
12854;BMP180;6495;51.808;7.478;2023-03-05T07:27:14;101164.00;;;4.20
12854;BMP180;6495;51.808;7.478;2023-03-05T07:29:43;101162.00;;;4.20
12854;BMP180;6495;51.808;7.478;2023-03-05T07:32:11;101162.00;;;4.30
12854;BMP180;6495;51.808;7.478;2023-03-05T07:34:40;101164.00;;;4.30
12854;BMP180;6495;51.808;7.478;2023-03-05T07:37:08;101165.00;;;4.30
12854;BMP180;6495;51.808;7.478;2023-03-05T07:39:36;101149.00;;;4.30
12854;BMP180;6495;51.808;7.478;2023-03-05T07:42:05;101161.00;;;4.30
12854;BMP180;6495;51.808;7.478;2023-03-05T07:44:50;101162.00;;;4.30
12854;BMP180;6495;51.808;7.478;2023-03-05T07:47:19;101152.00;;;4.30
12854;BMP180;6495;51.808;7.478;2023-03-05T07:49:47;101159.00;;;4.30
12854;BMP180;6495;51.808;7.478;2023-03-05T07:52:17;101147.00;;;4.30
12854;BMP180;6495;51.808;7.478;2023-03-05T07:54:48;101155.00;;;4.30
12854;BMP180;6495;51.808;7.478;2023-03-05T07:57:16;101152.00;;;4.30
12854;BMP180;6495;51.808;7.478;2023-03-05T07:59:45;101146.00;;;4.30
12854;BMP180;6495;51.808;7.478;2023-03-05T08:02:14;101145.00;;;4.30
12854;BMP180;6495;51.808;7.478;2023-03-05T08:04:45;101141.00;;;4.30
12854;BMP180;6495;51.808;7.478;2023-03-05T08:07:15;101144.00;;;4.30
12854;BMP180;6495;51.808;7.478;2023-03-05T08:09:43;101145.00;;;4.30
12854;BMP180;6495;51.808;7.478;2023-03-05T08:12:11;101145.00;;;4.30
12854;BMP180;6495;51.808;7.478;2023-03-05T08:14:40;101148.00;;;4.20
12854;BMP180;6495;51.808;7.478;2023-03-05T08:17:08;101141.00;;;4.20
12854;BMP180;6495;51.808;7.478;2023-03-05T08:19:38;101143.00;;;4.10
12854;BMP180;6495;51.808;7.478;2023-03-05T08:22:06;101142.00;;;4.10
12854;BMP180;6495;51.808;7.478;2023-03-05T08:24:34;101150.00;;;4.10
12854;BMP180;6495;51.808;7.478;2023-03-05T08:27:03;101143.00;;;4.10
12854;BMP180;6495;51.808;7.478;2023-03-05T08:29:31;101125.00;;;4.20
12854;BMP180;6495;51.808;7.478;2023-03-05T08:32:00;101134.00;;;4.10
12854;BMP180;6495;51.808;7.478;2023-03-05T08:34:28;101124.00;;;4.20
12854;BMP180;6495;51.808;7.478;2023-03-05T08:36:58;101131.00;;;4.20
12854;BMP180;6495;51.808;7.478;2023-03-05T08:39:26;101132.00;;;4.10
12854;BMP180;6495;51.808;7.478;2023-03-05T08:41:56;101126.00;;;4.10
12854;BMP180;6495;51.808;7.478;2023-03-05T08:44:24;101131.00;;;4.10
12854;BMP180;6495;51.808;7.478;2023-03-05T08:46:52;101130.00;;;4.10
12854;BMP180;6495;51.808;7.478;2023-03-05T08:49:22;101126.00;;;4.10
12854;BMP180;6495;51.808;7.478;2023-03-05T08:51:56;101125.00;;;4.10
12854;BMP180;6495;51.808;7.478;2023-03-05T08:54:25;101113.00;;;4.20
12854;BMP180;6495;51.808;7.478;2023-03-05T08:56:54;101112.00;;;4.30
12854;BMP180;6495;51.808;7.478;2023-03-05T08:59:22;101115.00;;;4.30
12854;BMP180;6495;51.808;7.478;2023-03-05T09:01:50;101112.00;;;4.40
12854;BMP180;6495;51.808;7.478;2023-03-05T09:04:18;101114.00;;;4.40
12854;BMP180;6495;51.808;7.478;2023-03-05T09:06:47;101107.00;;;4.50
12854;BMP180;6495;51.808;7.478;2023-03-05T09:09:15;101099.00;;;4.50
12854;BMP180;6495;51.808;7.478;2023-03-05T09:11:48;101106.00;;;4.60
12854;BMP180;6495;51.808;7.478;2023-03-05T09:14:18;101099.00;;;4.60
12854;BMP180;6495;51.808;7.478;2023-03-05T09:16:46;101102.00;;;4.60
12854;BMP180;6495;51.808;7.478;2023-03-05T09:19:15;101091.00;;;4.70
12854;BMP180;6495;51.808;7.478;2023-03-05T09:21:43;101099.00;;;4.70
12854;BMP180;6495;51.808;7.478;2023-03-05T09:24:12;101101.00;;;4.80
12854;BMP180;6495;51.808;7.478;2023-03-05T09:26:40;101094.00;;;4.80
12854;BMP180;6495;51.808;7.478;2023-03-05T09:29:11;101099.00;;;4.80
12854;BMP180;6495;51.808;7.478;2023-03-05T09:31:39;101095.00;;;4.90
12854;BMP180;6495;51.808;7.478;2023-03-05T09:34:10;101092.00;;;4.90
12854;BMP180;6495;51.808;7.478;2023-03-05T09:36:38;101081.00;;;4.90
12854;BMP180;6495;51.808;7.478;2023-03-05T09:39:07;101092.00;;;4.90
12854;BMP180;6495;51.808;7.478;2023-03-05T09:42:01;101091.00;;;4.90
12854;BMP180;6495;51.808;7.478;2023-03-05T09:44:41;101078.00;;;5.00
12854;BMP180;6495;51.808;7.478;2023-03-05T09:47:30;101077.00;;;5.00
12854;BMP180;6495;51.808;7.478;2023-03-05T09:50:29;101088.00;;;5.00
12854;BMP180;6495;51.808;7.478;2023-03-05T09:53:15;101074.00;;;5.00
12854;BMP180;6495;51.808;7.478;2023-03-05T09:55:48;101080.00;;;4.90
12854;BMP180;6495;51.808;7.478;2023-03-05T09:58:30;101075.00;;;4.90
12854;BMP180;6495;51.808;7.478;2023-03-05T10:01:05;101075.00;;;5.00
12854;BMP180;6495;51.808;7.478;2023-03-05T10:03:52;101075.00;;;5.10
12854;BMP180;6495;51.808;7.478;2023-03-05T10:06:28;101075.00;;;5.20
12854;BMP180;6495;51.808;7.478;2023-03-05T10:09:05;101066.00;;;5.20
12854;BMP180;6495;51.808;7.478;2023-03-05T10:11:48;101070.00;;;5.20
12854;BMP180;6495;51.808;7.478;2023-03-05T10:14:25;101058.00;;;5.30
12854;BMP180;6495;51.808;7.478;2023-03-05T10:17:56;101068.00;;;5.40
12854;BMP180;6495;51.808;7.478;2023-03-05T10:20:56;101061.00;;;5.40
12854;BMP180;6495;51.808;7.478;2023-03-05T10:24:01;101058.00;;;5.40
12854;BMP180;6495;51.808;7.478;2023-03-05T10:26:44;101064.00;;;5.50
12854;BMP180;6495;51.808;7.478;2023-03-05T10:29:46;101054.00;;;5.50
12854;BMP180;6495;51.808;7.478;2023-03-05T10:32:47;101049.00;;;5.50
12854;BMP180;6495;51.808;7.478;2023-03-05T10:38:58;101045.00;;;5.60
12854;BMP180;6495;51.808;7.478;2023-03-05T10:41:40;101047.00;;;5.50
12854;BMP180;6495;51.808;7.478;2023-03-05T10:44:35;101040.00;;;5.60
12854;BMP180;6495;51.808;7.478;2023-03-05T10:47:14;101037.00;;;5.60
12854;BMP180;6495;51.808;7.478;2023-03-05T10:49:53;101030.00;;;5.70
12854;BMP180;6495;51.808;7.478;2023-03-05T10:52:37;101027.00;;;5.80
12854;BMP180;6495;51.808;7.478;2023-03-05T10:55:19;101024.00;;;5.90
12854;BMP180;6495;51.808;7.478;2023-03-05T10:57:50;101034.00;;;5.90
12854;BMP180;6495;51.808;7.478;2023-03-05T11:00:24;101032.00;;;5.90
12854;BMP180;6495;51.808;7.478;2023-03-05T11:02:59;101036.00;;;5.70
12854;BMP180;6495;51.808;7.478;2023-03-05T11:05:44;101033.00;;;5.40
12854;BMP180;6495;51.808;7.478;2023-03-05T11:08:30;101018.00;;;5.20
12854;BMP180;6495;51.808;7.478;2023-03-05T11:11:19;101017.00;;;5.10
12854;BMP180;6495;51.808;7.478;2023-03-05T11:13:56;101001.00;;;5.00
12854;BMP180;6495;51.808;7.478;2023-03-05T11:16:29;101004.00;;;4.90
12854;BMP180;6495;51.808;7.478;2023-03-05T11:19:23;101007.00;;;4.90
12854;BMP180;6495;51.808;7.478;2023-03-05T11:22:14;101003.00;;;4.90
12854;BMP180;6495;51.808;7.478;2023-03-05T11:25:13;101002.00;;;4.90
12854;BMP180;6495;51.808;7.478;2023-03-05T11:27:50;100992.00;;;4.90
12854;BMP180;6495;51.808;7.478;2023-03-05T11:30:27;100994.00;;;4.90
12854;BMP180;6495;51.808;7.478;2023-03-05T11:33:12;100987.00;;;5.00
12854;BMP180;6495;51.808;7.478;2023-03-05T11:35:43;100988.00;;;5.00
12854;BMP180;6495;51.808;7.478;2023-03-05T11:38:19;100993.00;;;5.00
12854;BMP180;6495;51.808;7.478;2023-03-05T11:40:48;100980.00;;;5.10
12854;BMP180;6495;51.808;7.478;2023-03-05T11:43:20;100981.00;;;5.20
12854;BMP180;6495;51.808;7.478;2023-03-05T11:45:53;100986.00;;;5.30
12854;BMP180;6495;51.808;7.478;2023-03-05T11:48:36;100975.00;;;5.40
12854;BMP180;6495;51.808;7.478;2023-03-05T11:51:14;100969.00;;;5.50
12854;BMP180;6495;51.808;7.478;2023-03-05T11:53:53;100965.00;;;5.70
12854;BMP180;6495;51.808;7.478;2023-03-05T11:56:36;100967.00;;;5.90
12854;BMP180;6495;51.808;7.478;2023-03-05T11:59:15;100968.00;;;6.00
12854;BMP180;6495;51.808;7.478;2023-03-05T12:01:48;100963.00;;;6.10
12854;BMP180;6495;51.808;7.478;2023-03-05T12:04:18;100953.00;;;6.30
12854;BMP180;6495;51.808;7.478;2023-03-05T12:06:51;100959.00;;;6.40
12854;BMP180;6495;51.808;7.478;2023-03-05T12:09:30;100952.00;;;6.50
12854;BMP180;6495;51.808;7.478;2023-03-05T12:12:45;100957.00;;;6.70
12854;BMP180;6495;51.808;7.478;2023-03-05T12:16:09;100944.00;;;6.80
12854;BMP180;6495;51.808;7.478;2023-03-05T12:19:00;100931.00;;;6.80
12854;BMP180;6495;51.808;7.478;2023-03-05T12:21:37;100932.00;;;6.80
12854;BMP180;6495;51.808;7.478;2023-03-05T12:24:36;100930.00;;;6.90
12854;BMP180;6495;51.808;7.478;2023-03-05T12:27:16;100927.00;;;7.00
12854;BMP180;6495;51.808;7.478;2023-03-05T12:32:52;100918.00;;;7.00
12854;BMP180;6495;51.808;7.478;2023-03-05T12:35:27;100915.00;;;6.90
12854;BMP180;6495;51.808;7.478;2023-03-05T12:38:14;100913.00;;;6.80
12854;BMP180;6495;51.808;7.478;2023-03-05T12:41:43;100912.00;;;6.80
12854;BMP180;6495;51.808;7.478;2023-03-05T12:44:21;100899.00;;;6.80
12854;BMP180;6495;51.808;7.478;2023-03-05T12:47:15;100900.00;;;6.90
12854;BMP180;6495;51.808;7.478;2023-03-05T12:49:46;100896.00;;;7.00
12854;BMP180;6495;51.808;7.478;2023-03-05T12:52:25;100882.00;;;7.10
12854;BMP180;6495;51.808;7.478;2023-03-05T12:55:05;100871.00;;;7.10
12854;BMP180;6495;51.808;7.478;2023-03-05T12:57:36;100875.00;;;7.20
12854;BMP180;6495;51.808;7.478;2023-03-05T13:00:10;100861.00;;;7.30
12854;BMP180;6495;51.808;7.478;2023-03-05T13:02:50;100858.00;;;7.30
12854;BMP180;6495;51.808;7.478;2023-03-05T13:05:29;100857.00;;;7.30
12854;BMP180;6495;51.808;7.478;2023-03-05T13:08:22;100852.00;;;7.40
12854;BMP180;6495;51.808;7.478;2023-03-05T13:10:52;100851.00;;;7.50
12854;BMP180;6495;51.808;7.478;2023-03-05T13:13:29;100847.00;;;7.60
12854;BMP180;6495;51.808;7.478;2023-03-05T13:15:59;100846.00;;;7.60
12854;BMP180;6495;51.808;7.478;2023-03-05T13:18:30;100850.00;;;7.70
12854;BMP180;6495;51.808;7.478;2023-03-05T13:21:02;100836.00;;;7.70
12854;BMP180;6495;51.808;7.478;2023-03-05T13:23:33;100838.00;;;7.70
12854;BMP180;6495;51.808;7.478;2023-03-05T13:26:11;100839.00;;;7.80
12854;BMP180;6495;51.808;7.478;2023-03-05T13:28:44;100839.00;;;7.80
12854;BMP180;6495;51.808;7.478;2023-03-05T13:31:14;100835.00;;;7.80
12854;BMP180;6495;51.808;7.478;2023-03-05T13:33:53;100829.00;;;7.90
12854;BMP180;6495;51.808;7.478;2023-03-05T13:36:25;100828.00;;;8.00
12854;BMP180;6495;51.808;7.478;2023-03-05T13:38:55;100829.00;;;8.00
12854;BMP180;6495;51.808;7.478;2023-03-05T13:41:27;100817.00;;;8.00
12854;BMP180;6495;51.808;7.478;2023-03-05T13:43:59;100813.00;;;8.10
12854;BMP180;6495;51.808;7.478;2023-03-05T13:46:31;100804.00;;;8.10
12854;BMP180;6495;51.808;7.478;2023-03-05T13:49:16;100813.00;;;8.10
12854;BMP180;6495;51.808;7.478;2023-03-05T13:51:49;100792.00;;;8.20
12854;BMP180;6495;51.808;7.478;2023-03-05T13:54:18;100797.00;;;8.10
12854;BMP180;6495;51.808;7.478;2023-03-05T13:56:56;100789.00;;;8.10
12854;BMP180;6495;51.808;7.478;2023-03-05T13:59:29;100790.00;;;8.00
12854;BMP180;6495;51.808;7.478;2023-03-05T14:01:59;100781.00;;;8.00
12854;BMP180;6495;51.808;7.478;2023-03-05T14:04:33;100785.00;;;8.00
12854;BMP180;6495;51.808;7.478;2023-03-05T14:07:05;100782.00;;;8.10
12854;BMP180;6495;51.808;7.478;2023-03-05T14:09:45;100773.00;;;8.10
12854;BMP180;6495;51.808;7.478;2023-03-05T14:12:26;100774.00;;;8.10
12854;BMP180;6495;51.808;7.478;2023-03-05T14:14:58;100774.00;;;8.10
12854;BMP180;6495;51.808;7.478;2023-03-05T14:17:38;100770.00;;;8.20
12854;BMP180;6495;51.808;7.478;2023-03-05T14:20:24;100768.00;;;8.20
12854;BMP180;6495;51.808;7.478;2023-03-05T14:22:55;100756.00;;;8.20
12854;BMP180;6495;51.808;7.478;2023-03-05T14:25:33;100763.00;;;8.30
12854;BMP180;6495;51.808;7.478;2023-03-05T14:28:25;100768.00;;;8.40
12854;BMP180;6495;51.808;7.478;2023-03-05T14:31:00;100761.00;;;8.40
12854;BMP180;6495;51.808;7.478;2023-03-05T14:33:35;100755.00;;;8.40
12854;BMP180;6495;51.808;7.478;2023-03-05T14:36:04;100746.00;;;8.50
12854;BMP180;6495;51.808;7.478;2023-03-05T14:38:40;100740.00;;;8.50
12854;BMP180;6495;51.808;7.478;2023-03-05T14:45:26;100738.00;;;8.60
12854;BMP180;6495;51.808;7.478;2023-03-05T14:47:58;100725.00;;;8.60
12854;BMP180;6495;51.808;7.478;2023-03-05T14:50:29;100721.00;;;8.60
12854;BMP180;6495;51.808;7.478;2023-03-05T14:53:04;100715.00;;;8.70
12854;BMP180;6495;51.808;7.478;2023-03-05T14:55:34;100718.00;;;8.60
12854;BMP180;6495;51.808;7.478;2023-03-05T14:58:13;100706.00;;;8.60
12854;BMP180;6495;51.808;7.478;2023-03-05T15:00:48;100698.00;;;8.60
12854;BMP180;6495;51.808;7.478;2023-03-05T15:03:20;100703.00;;;8.60
12854;BMP180;6495;51.808;7.478;2023-03-05T15:05:51;100707.00;;;8.60
12854;BMP180;6495;51.808;7.478;2023-03-05T15:08:23;100698.00;;;8.60
12854;BMP180;6495;51.808;7.478;2023-03-05T15:10:56;100702.00;;;8.60